Time;durP1;ratioP1;P1;durP2;ratioP2;P2;SDS_P1;SDS_P2;PMS_P1;PMS_P2;Temp;Humidity;BMP_temperature;BMP_pressure;BME280_temperature;BME280_humidity;BME280_pressure;Samples;Min_cycle;Max_cycle;Signal;HPM_P1;HPM_P2
2022/11/27 00:01:50;;;;;;;24.58;7.15;;;;;;;5.34;100.00;101653.63;8236682;28;20058;-50
2022/11/27 00:05:56;;;;;;;15.65;4.93;;;;;;;5.38;100.00;101638.28;8242612;28;20050;-51
2022/11/27 00:09:56;;;;;;;21.50;5.65;;;;;;;5.62;100.00;101642.34;8236637;28;20508;-52
2022/11/27 00:13:58;;;;;;;20.23;4.93;;;;;;;5.78;100.00;101632.50;8224364;28;20568;-51
2022/11/27 00:17:58;;;;;;;25.55;7.20;;;;;;;5.83;100.00;101643.91;8231350;28;20125;-51
2022/11/27 00:21:59;;;;;;;22.80;6.82;;;;;;;5.92;100.00;101627.31;8231856;28;20555;-51
2022/11/27 00:26:00;;;;;;;15.65;5.75;;;;;;;6.00;100.00;101627.72;8231005;28;20039;-50
2022/11/27 00:30:01;;;;;;;17.65;6.35;;;;;;;5.97;100.00;101627.91;8238946;28;20138;-52
2022/11/27 00:34:03;;;;;;;20.20;7.10;;;;;;;6.00;100.00;101622.38;8238502;28;20465;-51
2022/11/27 00:38:04;;;;;;;19.67;6.05;;;;;;;6.02;100.00;101620.47;8235492;28;20035;-51
2022/11/27 00:42:05;;;;;;;18.27;5.35;;;;;;;6.02;100.00;101620.47;8237945;28;20047;-51
2022/11/27 00:46:05;;;;;;;14.18;5.72;;;;;;;5.85;100.00;101607.09;8236787;28;20117;-50
2022/11/27 00:50:06;;;;;;;20.50;5.32;;;;;;;5.65;100.00;101604.63;8237145;28;20094;-53
2022/11/27 00:54:07;;;;;;;23.90;5.15;;;;;;;5.65;100.00;101599.25;8236450;28;20126;-52
2022/11/27 00:58:08;;;;;;;15.15;5.60;;;;;;;5.62;100.00;101602.94;8241712;28;20054;-53
2022/11/27 01:02:08;;;;;;;15.35;5.20;;;;;;;5.59;100.00;101605.84;8241761;28;20234;-52
2022/11/27 01:06:09;;;;;;;20.55;4.57;;;;;;;5.62;100.00;101620.88;8245209;28;20125;-50
2022/11/27 01:10:10;;;;;;;12.13;4.75;;;;;;;5.54;100.00;101615.06;8241566;28;20716;-50
2022/11/27 01:14:14;;;;;;;11.75;4.25;;;;;;;5.52;100.00;101616.97;8234345;28;20047;-53
2022/11/27 01:18:14;;;;;;;15.68;5.25;;;;;;;5.53;100.00;101605.28;8250675;28;20129;-52
2022/11/27 01:22:15;;;;;;;16.73;4.97;;;;;;;5.53;100.00;101598.13;8256932;28;20038;-50
2022/11/27 01:26:17;;;;;;;15.27;4.43;;;;;;;5.43;100.00;101598.69;8259450;28;20042;-54
2022/11/27 01:30:17;;;;;;;13.27;4.78;;;;;;;5.39;100.00;101592.59;8259722;28;20479;-52
2022/11/27 01:34:19;;;;;;;15.65;4.60;;;;;;;5.46;100.00;101599.38;8258717;28;20475;-53
2022/11/27 01:38:20;;;;;;;21.67;4.88;;;;;;;5.53;100.00;101589.19;8258965;28;20508;-52
2022/11/27 01:42:21;;;;;;;9.02;4.18;;;;;;;5.54;100.00;101590.91;8257734;28;20506;-50
2022/11/27 01:46:45;;;;;;;19.98;4.05;;;;;;;5.48;100.00;101586.75;8258585;28;20088;-50
2022/11/27 01:50:45;;;;;;;17.38;4.93;;;;;;;5.43;100.00;101574.56;8259076;28;20053;-52
2022/11/27 01:55:00;;;;;;;12.98;3.97;;;;;;;5.44;100.00;101578.97;8257486;28;20503;-50
2022/11/27 01:59:02;;;;;;;14.63;4.53;;;;;;;5.44;100.00;101557.50;8257011;28;20134;-51
2022/11/27 02:03:02;;;;;;;17.73;4.95;;;;;;;5.41;100.00;101558.53;8258551;28;20455;-53
2022/11/27 02:07:03;;;;;;;19.40;5.20;;;;;;;5.42;100.00;101559.38;8257799;28;20074;-51
2022/11/27 02:11:29;;;;;;;26.02;6.53;;;;;;;5.43;100.00;101558.47;8263756;28;20058;-51
2022/11/27 02:15:42;;;;;;;13.40;5.20;;;;;;;5.45;100.00;101565.47;8257029;28;20035;-50
2022/11/27 02:20:17;;;;;;;16.65;5.10;;;;;;;5.44;100.00;101544.97;8257888;28;20100;-50
2022/11/27 02:24:47;;;;;;;11.85;5.55;;;;;;;5.46;100.00;101528.81;8257024;28;20096;-51
2022/11/27 02:29:09;;;;;;;14.13;4.70;;;;;;;5.50;100.00;101535.72;8257467;28;20529;-51
2022/11/27 02:33:11;;;;;;;14.85;5.28;;;;;;;5.48;100.00;101532.25;8252022;28;20109;-53
2022/11/27 02:37:35;;;;;;;19.00;5.95;;;;;;;5.43;100.00;101539.69;8257182;28;20038;-52
2022/11/27 02:41:43;;;;;;;12.90;6.00;;;;;;;5.43;100.00;101534.31;8257470;28;20038;-53
2022/11/27 02:45:47;;;;;;;17.65;6.68;;;;;;;5.39;100.00;101517.53;8256438;28;20035;-50
2022/11/27 02:49:50;;;;;;;17.48;6.32;;;;;;;5.35;100.00;101517.78;8257273;28;20049;-50
2022/11/27 02:53:55;;;;;;;18.42;5.45;;;;;;;5.30;100.00;101501.06;8256370;28;20074;-50
2022/11/27 02:57:58;;;;;;;12.63;5.68;;;;;;;5.32;100.00;101504.53;8255751;28;20042;-51
2022/11/27 03:02:05;;;;;;;18.63;5.72;;;;;;;5.32;100.00;101488.47;8256058;28;20286;-50
2022/11/27 03:06:11;;;;;;;21.48;6.80;;;;;;;5.32;100.00;101493.81;8256268;28;20034;-53
2022/11/27 03:10:18;;;;;;;18.92;6.65;;;;;;;5.29;100.00;101496.66;8255436;28;20464;-50
2022/11/27 03:14:23;;;;;;;18.38;6.22;;;;;;;5.33;100.00;101484.81;8254872;28;20108;-50
2022/11/27 03:18:35;;;;;;;25.25;6.80;;;;;;;5.36;100.00;101474.78;8255639;28;20392;-51
2022/11/27 03:22:36;;;;;;;16.95;6.18;;;;;;;5.38;100.00;101451.47;8254761;28;20040;-51
2022/11/27 03:26:38;;;;;;;17.38;7.28;;;;;;;5.44;100.00;101450.25;8255410;28;20030;-49
2022/11/27 03:30:39;;;;;;;14.88;6.15;;;;;;;5.48;100.00;101462.53;8255494;28;20058;-51
2022/11/27 03:34:40;;;;;;;18.85;7.15;;;;;;;5.52;100.00;101470.31;8254240;28;20097;-51
2022/11/27 03:38:43;;;;;;;19.48;6.78;;;;;;;5.60;100.00;101472.56;8255396;28;20054;-50
2022/11/27 03:43:02;;;;;;;17.48;7.03;;;;;;;5.62;100.00;101463.47;8255427;28;20042;-50
2022/11/27 03:47:30;;;;;;;13.15;6.47;;;;;;;5.62;100.00;101462.63;8254690;28;20539;-49
2022/11/27 03:51:45;;;;;;;25.90;7.45;;;;;;;5.65;100.00;101467.81;8254997;28;20046;-50
2022/11/27 03:56:12;;;;;;;17.83;7.10;;;;;;;5.72;100.00;101462.03;8253549;28;20046;-51
2022/11/27 04:00:14;;;;;;;19.00;6.95;;;;;;;5.77;100.00;101456.41;8254120;28;20048;-51
2022/11/27 04:04:14;;;;;;;17.45;6.75;;;;;;;5.78;100.00;101460.81;8254703;28;20037;-50
2022/11/27 04:08:15;;;;;;;21.52;7.80;;;;;;;5.77;100.00;101448.34;8254935;28;20042;-49
2022/11/27 04:12:15;;;;;;;18.23;7.32;;;;;;;5.76;100.00;101435.88;8254438;28;20457;-50
2022/11/27 04:16:16;;;;;;;19.27;7.30;;;;;;;5.79;100.00;101457.16;8255107;28;20504;-49
2022/11/27 04:20:17;;;;;;;29.60;8.55;;;;;;;5.82;100.00;101435.53;8256433;28;20046;-50
2022/11/27 04:24:17;;;;;;;25.58;8.60;;;;;;;5.82;100.00;101424.81;8254671;28;20073;-50
2022/11/27 04:28:18;;;;;;;19.27;8.55;;;;;;;5.83;100.00;101410.47;8255053;28;20093;-49
2022/11/27 04:32:18;;;;;;;20.00;7.82;;;;;;;5.82;100.00;101414.97;8254747;28;20619;-49
2022/11/27 04:36:19;;;;;;;24.60;8.30;;;;;;;5.80;100.00;101399.88;8255322;28;20404;-49
2022/11/27 04:40:19;;;;;;;25.10;9.07;;;;;;;5.83;100.00;101400.56;8254881;28;20198;-50
2022/11/27 04:44:21;;;;;;;24.13;8.32;;;;;;;5.82;100.00;101382.75;8255428;28;20503;-52
2022/11/27 04:48:22;;;;;;;24.40;9.13;;;;;;;5.82;100.00;101389.94;8255450;28;20058;-48
2022/11/27 04:52:22;;;;;;;20.77;9.63;;;;;;;5.84;100.00;101385.34;8255564;28;20038;-52
2022/11/27 04:56:23;;;;;;;25.83;9.23;;;;;;;5.87;100.00;101385.19;8253333;28;20038;-50
2022/11/27 05:00:23;;;;;;;25.17;9.32;;;;;;;5.89;100.00;101383.28;8255692;28;20500;-49
2022/11/27 05:04:24;;;;;;;23.75;8.95;;;;;;;5.90;100.00;101385.00;8254830;28;20031;-50
2022/11/27 05:08:25;;;;;;;26.08;9.45;;;;;;;5.93;100.00;101379.44;8254773;28;20041;-50
2022/11/27 05:12:26;;;;;;;18.92;8.35;;;;;;;5.90;100.00;101375.13;8255333;28;20042;-53
2022/11/27 05:16:26;;;;;;;20.85;8.93;;;;;;;5.93;100.00;101379.44;8254967;28;20481;-50
2022/11/27 05:20:27;;;;;;;26.30;9.50;;;;;;;5.91;100.00;101368.81;8258012;28;20065;-50
2022/11/27 05:24:28;;;;;;;23.02;9.52;;;;;;;5.97;100.00;101370.25;8260634;28;20357;-49
2022/11/27 05:28:28;;;;;;;22.73;9.30;;;;;;;6.01;100.00;101355.72;8276007;28;20089;-50
2022/11/27 05:32:29;;;;;;;26.40;9.73;;;;;;;6.01;100.00;101355.72;8259764;28;20046;-50
2022/11/27 05:36:30;;;;;;;27.25;10.43;;;;;;;6.00;100.00;101359.34;8259918;28;20255;-51
2022/11/27 05:40:31;;;;;;;23.58;9.18;;;;;;;6.03;100.00;101354.66;8260026;28;20030;-49
2022/11/27 05:44:31;;;;;;;24.60;9.25;;;;;;;6.05;100.00;101354.56;8260054;28;20045;-50
2022/11/27 05:48:33;;;;;;;19.30;8.38;;;;;;;6.07;100.00;101338.38;8260090;28;20527;-51
2022/11/27 05:52:34;;;;;;;21.55;8.27;;;;;;;6.05;100.00;101325.03;8258644;28;20069;-50
2022/11/27 05:56:35;;;;;;;23.02;8.50;;;;;;;6.01;100.00;101328.88;8255696;28;20065;-50
2022/11/27 06:00:35;;;;;;;20.63;9.32;;;;;;;5.97;100.00;101321.94;8255997;28;20035;-49
2022/11/27 06:04:36;;;;;;;26.60;9.48;;;;;;;6.05;100.00;101325.03;8256003;28;20041;-51
2022/11/27 06:08:37;;;;;;;18.67;8.85;;;;;;;6.02;100.00;101319.88;8257226;28;20038;-52
2022/11/27 06:12:37;;;;;;;22.70;9.13;;;;;;;6.03;100.00;101310.84;8241650;28;20336;-50
2022/11/27 06:16:38;;;;;;;25.33;9.38;;;;;;;6.06;100.00;101305.28;8258403;28;20049;-50
2022/11/27 06:20:38;;;;;;;23.17;8.95;;;;;;;6.05;100.00;101306.25;8247211;28;20544;-50
2022/11/27 06:24:39;;;;;;;19.15;8.77;;;;;;;6.09;100.00;101307.78;8258287;28;20125;-49
2022/11/27 06:28:40;;;;;;;20.50;8.95;;;;;;;6.09;100.00;101302.41;8248395;28;20035;-50
2022/11/27 06:32:41;;;;;;;24.23;8.60;;;;;;;6.07;100.00;101300.78;8255341;28;20070;-50
2022/11/27 06:36:41;;;;;;;17.35;8.23;;;;;;;6.06;100.00;101289.19;8253156;28;20053;-49
2022/11/27 06:40:42;;;;;;;25.92;9.85;;;;;;;6.06;100.00;101286.50;8258458;28;20049;-51
2022/11/27 06:44:43;;;;;;;22.67;8.73;;;;;;;6.06;100.00;101273.09;8235879;28;20050;-50
2022/11/27 06:48:45;;;;;;;16.55;8.77;;;;;;;6.16;100.00;101268.03;8242258;28;20058;-51
2022/11/27 06:52:46;;;;;;;19.95;8.75;;;;;;;6.18;100.00;101271.47;8257223;28;20053;-51
2022/11/27 06:56:49;;;;;;;18.63;9.05;;;;;;;6.29;100.00;101264.50;8255226;28;20042;-50
2022/11/27 07:00:55;;;;;;;15.98;8.02;;;;;;;6.34;100.00;101246.25;8257040;28;20100;-50
2022/11/27 07:04:55;;;;;;;20.55;7.82;;;;;;;6.39;100.00;101238.78;8256461;28;20049;-52
2022/11/27 07:08:56;;;;;;;21.42;8.27;;;;;;;6.43;100.00;101234.94;8257346;28;20048;-50
2022/11/27 07:12:57;;;;;;;19.30;7.90;;;;;;;6.51;100.00;101229.94;8254948;28;20102;-53
2022/11/27 07:16:57;;;;;;;13.18;6.72;;;;;;;6.60;100.00;101226.69;8256552;28;20403;-50
2022/11/27 07:20:58;;;;;;;18.40;7.70;;;;;;;6.63;100.00;101217.56;8256515;28;20125;-51
2022/11/27 07:24:58;;;;;;;16.25;6.97;;;;;;;6.63;100.00;101210.38;8248518;28;20039;-52
2022/11/27 07:28:59;;;;;;;16.00;7.60;;;;;;;6.65;100.00;101208.41;8246054;28;20065;-50
2022/11/27 07:32:59;;;;;;;12.70;5.82;;;;;;;6.67;100.00;101205.63;8256926;28;20053;-52
2022/11/27 07:37:00;;;;;;;13.43;6.30;;;;;;;6.69;100.00;101196.53;8246274;28;20038;-51
2022/11/27 07:41:02;;;;;;;14.05;6.57;;;;;;;6.76;100.00;101200.53;8250971;28;20042;-50
2022/11/27 07:45:03;;;;;;;13.75;6.35;;;;;;;6.90;100.00;101205.88;8246434;28;20038;-51
2022/11/27 07:49:04;;;;;;;12.13;6.05;;;;;;;6.96;99.59;101197.44;8239956;28;20038;-50
2022/11/27 07:53:04;;;;;;;11.80;5.40;;;;;;;7.05;98.89;101202.16;8241231;28;20043;-53
2022/11/27 07:57:04;;;;;;;8.65;5.15;;;;;;;7.15;98.38;101210.50;8245322;28;20122;-51
2022/11/27 08:01:07;;;;;;;13.63;5.47;;;;;;;7.20;98.04;101206.53;8237082;28;20073;-53
2022/11/27 08:05:08;;;;;;;14.80;5.50;;;;;;;7.23;98.22;101222.44;8219864;28;20412;-51
2022/11/27 08:09:09;;;;;;;13.00;5.63;;;;;;;7.30;97.44;101223.78;8252850;28;20050;-54
2022/11/27 08:13:09;;;;;;;8.93;4.75;;;;;;;7.39;97.17;101193.59;8251412;28;20093;-53
2022/11/27 08:17:12;;;;;;;12.50;5.30;;;;;;;7.39;97.28;101204.34;8254299;28;20132;-49
2022/11/27 08:21:12;;;;;;;9.93;5.15;;;;;;;7.46;96.53;101199.38;8223770;28;20186;-49
2022/11/27 08:25:13;;;;;;;7.65;4.55;;;;;;;7.63;95.84;101186.50;8224433;28;20075;-49
2022/11/27 08:29:14;;;;;;;11.10;4.70;;;;;;;7.79;94.63;101206.03;8241116;28;20487;-51
2022/11/27 08:33:15;;;;;;;12.43;4.85;;;;;;;7.83;95.28;101212.91;8238896;28;20465;-51
2022/11/27 08:37:15;;;;;;;29.40;11.95;;;;;;;7.92;95.89;101206.03;8245789;28;20078;-50
2022/11/27 08:41:16;;;;;;;21.38;9.30;;;;;;;8.02;95.14;101207.09;8237549;28;20170;-52
2022/11/27 08:45:17;;;;;;;12.88;6.40;;;;;;;8.06;94.78;101190.63;8250378;28;20050;-51
2022/11/27 08:49:17;;;;;;;8.40;4.47;;;;;;;8.06;93.40;101182.53;8225799;28;20043;-49
2022/11/27 08:53:18;;;;;;;9.63;5.07;;;;;;;8.07;93.45;101183.41;8242374;28;20039;-50
2022/11/27 08:57:19;;;;;;;5.95;4.60;;;;;;;8.13;92.32;101199.13;8240269;28;20412;-50
2022/11/27 09:01:24;;;;;;;9.52;5.35;;;;;;;8.16;92.66;101192.66;8246874;28;20042;-50
2022/11/27 09:05:24;;;;;;;;;;;;;;;8.15;93.55;101180.16;8239482;28;20046;-50
2022/11/27 09:09:25;;;;;;;14.63;6.85;;;;;;;8.17;93.99;101170.16;8247394;28;19922;-51
2022/11/27 09:13:26;;;;;;;10.38;5.07;;;;;;;8.26;93.84;101165.00;8239186;28;20577;-52
2022/11/27 09:17:27;;;;;;;12.52;7.13;;;;;;;8.42;93.28;101173.69;8248542;28;20050;-52
2022/11/27 09:21:29;;;;;;;7.22;4.63;;;;;;;8.65;92.27;101159.41;8251044;28;20050;-53
2022/11/27 09:25:30;;;;;;;8.70;4.10;;;;;;;8.90;90.65;101142.25;8235759;28;20049;-51
2022/11/27 09:29:33;;;;;;;6.22;3.25;;;;;;;9.41;88.09;101146.41;8245482;28;20129;-50
2022/11/27 09:33:35;;;;;;;8.80;3.80;;;;;;;9.83;85.26;101151.19;8245393;28;20045;-50
2022/11/27 09:37:36;;;;;;;8.35;3.28;;;;;;;9.86;83.54;101153.66;8262497;28;20045;-53
2022/11/27 09:41:56;;;;;;;6.90;2.97;;;;;;;9.75;84.35;101137.41;8237594;28;20045;-53
2022/11/27 09:46:05;;;;;;;8.02;3.65;;;;;;;9.67;83.80;101137.16;8251175;28;20109;-53
2022/11/27 09:50:16;;;;;;;5.72;2.95;;;;;;;9.65;85.05;101141.81;8229125;28;20514;-53
2022/11/27 09:54:39;;;;;;;6.47;3.25;;;;;;;9.60;84.42;101135.91;8249965;28;20389;-54
2022/11/27 09:58:44;;;;;;;8.45;3.40;;;;;;;9.60;84.24;101141.31;8252293;28;20086;-51
2022/11/27 10:02:46;;;;;;;7.40;3.05;;;;;;;9.65;84.47;101136.41;8257141;28;20045;-54
2022/11/27 10:07:18;;;;;;;6.47;3.22;;;;;;;9.63;84.69;101122.16;8255722;28;20045;-50
2022/11/27 10:11:40;;;;;;;6.80;3.08;;;;;;;9.55;85.76;101130.03;8251379;28;20381;-54
2022/11/27 10:16:03;;;;;;;5.95;3.47;;;;;;;9.35;86.51;101111.81;8254057;28;20052;-53
2022/11/27 10:20:30;;;;;;;8.47;3.00;;;;;;;9.31;86.64;101108.50;8259448;28;20030;-52
2022/11/27 10:29:11;;;;;;;6.40;3.42;;;;;;;9.39;86.27;101113.28;8407523;27;20764;-52
2022/11/27 10:33:17;;;;;;;6.88;2.92;;;;;;;9.43;85.10;101103.97;8409943;27;20064;-52
2022/11/27 10:37:27;;;;;;;10.63;3.33;;;;;;;9.52;85.22;101089.78;8406243;27;20573;-51
2022/11/27 10:41:33;;;;;;;7.93;3.50;;;;;;;9.54;85.09;101087.78;8410165;27;20032;-53
2022/11/27 10:45:43;;;;;;;6.70;3.63;;;;;;;9.58;84.78;101075.81;8412454;27;20067;-49
2022/11/27 10:49:46;;;;;;;6.50;3.30;;;;;;;9.68;84.32;101066.84;8412330;27;20039;-52
2022/11/27 10:53:51;;;;;;;7.55;3.00;;;;;;;9.79;83.47;101050.63;8412099;28;20040;-52
2022/11/27 10:58:04;;;;;;;6.80;3.25;;;;;;;9.86;83.43;101059.13;8411466;27;20471;-52
2022/11/27 11:02:23;;;;;;;5.97;3.28;;;;;;;9.85;83.80;101041.19;8412240;27;20043;-51
2022/11/27 11:06:25;;;;;;;6.75;3.58;;;;;;;9.88;83.59;101040.94;8393953;27;20101;-53
2022/11/27 11:10:33;;;;;;;11.48;3.47;;;;;;;9.92;83.98;101027.06;8379143;28;21688;-49
2022/11/27 11:14:34;;;;;;;7.20;3.35;;;;;;;9.86;84.73;101027.56;8382234;27;20048;-53
2022/11/27 11:18:56;;;;;;;6.93;3.15;;;;;;;9.92;84.79;101002.75;8380132;27;20506;-52
2022/11/27 11:22:57;;;;;;;7.10;3.10;;;;;;;10.00;84.62;101003.00;8381638;27;20064;-50
2022/11/27 11:27:02;;;;;;;4.60;3.33;;;;;;;10.01;84.42;100995.75;8379966;27;20057;-50
2022/11/27 11:31:08;;;;;;;5.28;2.95;;;;;;;10.01;83.79;100993.06;8382858;27;20052;-50
2022/11/27 11:35:27;;;;;;;7.13;3.47;;;;;;;10.16;83.00;100983.72;8388372;28;20525;-49
2022/11/27 11:39:34;;;;;;;5.07;2.75;;;;;;;10.22;81.58;100979.66;8378318;28;20147;-49
2022/11/27 11:43:36;;;;;;;6.70;3.17;;;;;;;10.25;81.24;100961.38;8371516;28;20453;-50
2022/11/27 11:47:45;;;;;;;8.93;3.35;;;;;;;10.28;82.04;100952.97;8355070;28;20072;-51
2022/11/27 11:52:25;;;;;;;6.00;2.67;;;;;;;10.35;82.12;100940.69;8333180;28;20120;-51
2022/11/27 11:56:32;;;;;;;9.43;3.53;;;;;;;10.44;82.31;100937.22;8325094;28;20297;-49
2022/11/27 12:00:41;;;;;;;5.63;2.95;;;;;;;10.59;81.07;100932.34;8351435;28;20060;-52
2022/11/27 12:05:21;;;;;;;7.55;3.30;;;;;;;10.76;81.16;100920.91;8350254;28;20568;-53
2022/11/27 12:09:43;;;;;;;7.43;4.10;;;;;;;10.93;78.71;100910.38;8343610;28;20063;-51
2022/11/27 12:14:24;;;;;;;6.70;4.18;;;;;;;10.99;78.60;100896.31;8344260;28;20037;-53
2022/11/27 12:18:54;;;;;;;6.78;3.63;;;;;;;11.01;78.06;100888.91;8354354;28;20082;-50
2022/11/27 12:23:34;;;;;;;6.15;3.45;;;;;;;11.09;76.11;100885.53;8378549;28;20036;-49
2022/11/27 12:28:15;;;;;;;9.30;4.50;;;;;;;11.23;75.83;100883.31;8372958;28;20136;-52
2022/11/27 12:32:29;;;;;;;4.85;3.38;;;;;;;11.11;76.51;100878.13;8358697;28;20049;-51
2022/11/27 12:45:27;;;;;;;7.45;4.00;;;;;;;10.71;81.82;100851.03;8418145;27;20353;-49
2022/11/27 12:49:39;;;;;;;9.18;3.83;;;;;;;10.58;83.03;100833.31;8370106;28;20121;-50
2022/11/27 12:53:54;;;;;;;5.50;2.65;;;;;;;10.59;83.12;100821.50;8351992;28;20049;-53
2022/11/27 12:58:03;;;;;;;6.38;2.83;;;;;;;10.65;80.98;100811.00;8368887;28;20037;-52
2022/11/27 13:02:33;;;;;;;7.28;3.75;;;;;;;10.69;83.17;100809.75;8341000;28;20044;-51
2022/11/27 13:06:48;;;;;;;7.25;4.43;;;;;;;10.63;85.18;100804.88;8339339;28;20037;-52
2022/11/27 13:10:55;;;;;;;8.88;3.92;;;;;;;10.53;86.09;100795.84;8343834;28;20116;-51
2022/11/27 13:15:01;;;;;;;9.73;4.18;;;;;;;10.51;85.41;100780.72;8323638;28;20052;-49
2022/11/27 13:19:41;;;;;;;8.70;3.75;;;;;;;10.52;85.93;100786.00;8336452;28;20115;-50
2022/11/27 13:23:41;;;;;;;10.77;5.80;;;;;;;10.42;87.20;100779.69;8337630;28;20560;-50
2022/11/27 13:27:48;;;;;;;10.50;5.40;;;;;;;10.32;86.54;100770.69;8348987;28;20449;-51
2022/11/27 13:31:54;;;;;;;8.20;4.07;;;;;;;10.36;86.11;100782.94;8366435;28;20072;-50
2022/11/27 13:35:56;;;;;;;11.27;6.03;;;;;;;10.33;87.94;100777.78;8344000;28;20044;-51
2022/11/27 13:39:59;;;;;;;8.90;4.72;;;;;;;10.17;92.16;100780.09;8337896;28;20498;-50
2022/11/27 13:44:00;;;;;;;11.40;5.88;;;;;;;10.06;93.60;100776.59;8337890;28;20458;-50
2022/11/27 13:48:17;;;;;;;11.20;5.55;;;;;;;9.90;95.63;100758.97;8356557;28;20123;-50
2022/11/27 13:52:20;;;;;;;10.35;5.70;;;;;;;9.83;96.04;100751.53;8394552;28;20035;-51
2022/11/27 13:56:30;;;;;;;6.45;4.90;;;;;;;9.72;96.51;100748.88;8322206;28;20072;-50
2022/11/27 14:00:45;;;;;;;9.45;4.30;;;;;;;9.66;96.48;100725.09;8330665;28;20045;-52
2022/11/27 14:04:48;;;;;;;6.80;4.03;;;;;;;9.66;96.05;100750.25;8345229;28;20041;-51
2022/11/27 14:09:05;;;;;;;10.95;5.43;;;;;;;9.65;94.86;100774.69;8320751;28;20048;-51
2022/11/27 14:13:08;;;;;;;7.57;4.60;;;;;;;9.63;95.51;100766.72;8322398;28;20038;-51
2022/11/27 14:17:25;;;;;;;6.97;5.13;;;;;;;9.60;96.53;100776.91;8331352;28;20111;-51
2022/11/27 14:21:39;;;;;;;8.63;4.65;;;;;;;9.59;97.04;100775.19;8322181;28;20037;-51
2022/11/27 14:25:40;;;;;;;7.07;4.32;;;;;;;9.56;97.24;100767.34;8320638;28;20034;-53
2022/11/27 14:29:40;;;;;;;7.25;4.50;;;;;;;9.51;98.17;100761.47;8333480;28;20116;-51
2022/11/27 14:33:43;;;;;;;10.13;5.45;;;;;;;9.44;98.91;100757.56;8328552;28;20041;-50
2022/11/27 14:37:43;;;;;;;10.25;5.10;;;;;;;9.42;99.36;100756.84;8321776;28;20060;-52
2022/11/27 14:41:55;;;;;;;8.95;4.53;;;;;;;9.43;98.81;100747.78;8318207;28;20064;-50
2022/11/27 14:45:59;;;;;;;11.27;5.03;;;;;;;9.39;99.93;100746.28;8306539;28;20037;-53
2022/11/27 14:50:00;;;;;;;6.07;4.30;;;;;;;9.33;98.93;100752.22;8349746;28;20040;-52
2022/11/27 14:54:04;;;;;;;11.05;3.63;;;;;;;9.31;95.94;100740.69;8319538;28;20041;-50
2022/11/27 14:58:05;;;;;;;5.07;3.38;;;;;;;9.27;95.39;100714.97;8312877;28;20061;-52
2022/11/27 15:06:18;;;;;;;12.07;4.93;;;;;;;9.17;99.93;100722.09;8344990;27;20405;-50
2022/11/27 15:10:26;;;;;;;9.40;4.90;;;;;;;9.10;99.67;100713.66;8313614;28;20088;-51
2022/11/27 15:14:27;;;;;;;11.10;4.80;;;;;;;9.05;100.00;100709.63;8312359;28;20040;-50
2022/11/27 15:18:31;;;;;;;8.85;5.13;;;;;;;9.03;100.00;100714.28;8311346;28;20046;-50
2022/11/27 15:22:32;;;;;;;14.20;5.72;;;;;;;9.02;100.00;100721.50;8311179;28;20427;-52
2022/11/27 15:26:39;;;;;;;9.13;5.28;;;;;;;8.96;100.00;100716.63;8302840;28;20050;-50
2022/11/27 15:30:44;;;;;;;9.73;4.53;;;;;;;8.96;100.00;100721.16;8307656;28;20156;-51
2022/11/27 15:34:45;;;;;;;8.13;4.90;;;;;;;8.93;100.00;100716.00;8303499;28;20055;-50
2022/11/27 15:38:46;;;;;;;9.77;5.15;;;;;;;8.92;100.00;100714.31;8310684;28;20042;-53
2022/11/27 15:42:47;;;;;;;9.52;4.95;;;;;;;8.89;100.00;100710.03;8309485;28;20080;-51
2022/11/27 15:46:49;;;;;;;6.22;5.18;;;;;;;8.90;100.00;100708.16;8321102;28;20099;-49
2022/11/27 15:50:50;;;;;;;8.02;4.80;;;;;;;8.90;99.89;100700.09;8305364;28;20088;-50
2022/11/27 15:54:51;;;;;;;7.95;4.18;;;;;;;8.90;98.55;100687.47;8306253;28;20041;-49
2022/11/27 15:58:51;;;;;;;10.95;5.03;;;;;;;8.92;98.80;100692.72;8309521;28;20525;-50
2022/11/27 16:02:52;;;;;;;12.10;5.00;;;;;;;8.93;97.56;100694.44;8310656;28;20129;-51
2022/11/27 16:06:53;;;;;;;8.70;5.00;;;;;;;8.96;97.60;100700.44;8310310;28;20042;-50
2022/11/27 16:10:58;;;;;;;12.55;5.78;;;;;;;8.95;98.22;100695.19;8311203;28;20143;-50
2022/11/27 16:14:59;;;;;;;8.00;5.13;;;;;;;8.97;96.94;100674.34;8289883;28;20052;-49
2022/11/27 16:19:01;;;;;;;10.88;5.80;;;;;;;8.95;98.09;100693.34;8289839;28;20547;-50
2022/11/27 16:23:02;;;;;;;9.15;5.68;;;;;;;8.85;99.09;100680.75;8287994;28;20566;-50
2022/11/27 16:27:02;;;;;;;11.60;6.07;;;;;;;8.79;100.00;100681.25;8275662;28;20421;-49
2022/11/27 16:31:07;;;;;;;14.98;6.97;;;;;;;8.79;100.00;100670.47;8263968;28;20066;-49
2022/11/27 16:35:08;;;;;;;12.05;6.75;;;;;;;8.81;100.00;100657.72;8264760;28;20039;-49
2022/11/27 16:39:10;;;;;;;11.65;7.15;;;;;;;8.81;99.63;100646.94;8286817;28;20048;-50
2022/11/27 16:43:13;;;;;;;11.63;6.85;;;;;;;8.82;99.59;100643.25;8288414;28;20045;-49
2022/11/27 16:47:15;;;;;;;9.82;5.70;;;;;;;8.81;99.84;100633.47;8311014;28;20494;-49
2022/11/27 16:51:20;;;;;;;10.20;6.28;;;;;;;8.82;99.39;100632.47;8312048;28;20045;-49
2022/11/27 16:55:23;;;;;;;8.30;5.55;;;;;;;8.80;99.28;100620.97;8277069;28;20042;-49
2022/11/27 16:59:24;;;;;;;7.95;4.80;;;;;;;8.77;99.86;100614.00;8285807;28;20152;-49
2022/11/27 17:03:24;;;;;;;11.88;5.72;;;;;;;8.78;100.00;100604.06;8281858;28;20128;-50
2022/11/27 17:07:25;;;;;;;12.45;8.60;;;;;;;8.79;100.00;100592.28;8283949;28;20125;-52
2022/11/27 17:11:29;;;;;;;15.40;7.80;;;;;;;8.71;100.00;100581.28;8281162;28;20038;-50
2022/11/27 17:15:30;;;;;;;13.43;8.18;;;;;;;8.69;100.00;100567.09;8267317;28;20046;-49
2022/11/27 17:19:31;;;;;;;13.70;7.35;;;;;;;8.65;100.00;100552.16;8289272;28;20111;-49
2022/11/27 17:23:31;;;;;;;21.08;9.93;;;;;;;8.62;100.00;100555.09;8280782;28;20056;-49
2022/11/27 17:27:33;;;;;;;13.02;7.47;;;;;;;8.62;100.00;100557.78;8282414;28;20224;-49
2022/11/27 17:31:35;;;;;;;15.90;7.53;;;;;;;8.60;100.00;100562.47;8281789;28;20080;-49
2022/11/27 17:35:36;;;;;;;10.68;6.68;;;;;;;8.60;100.00;100546.31;8276153;28;20404;-49
2022/11/27 17:39:39;;;;;;;13.63;8.20;;;;;;;8.57;100.00;100525.00;8285510;28;20038;-49
2022/11/27 17:43:41;;;;;;;16.98;10.00;;;;;;;8.53;100.00;100523.53;8270451;28;20335;-48
2022/11/27 17:47:41;;;;;;;15.65;8.93;;;;;;;8.48;100.00;100517.69;8285627;28;20084;-49
2022/11/27 17:51:42;;;;;;;17.77;10.15;;;;;;;8.43;100.00;100506.41;8284978;28;20049;-49
2022/11/27 17:55:43;;;;;;;14.38;9.00;;;;;;;8.38;100.00;100497.88;8286625;28;20045;-49
2022/11/27 17:59:44;;;;;;;14.25;8.60;;;;;;;8.31;100.00;100507.44;8287043;28;20184;-54
2022/11/27 18:03:45;;;;;;;18.65;9.40;;;;;;;8.28;100.00;100507.69;8301028;28;20050;-51
2022/11/27 18:07:47;;;;;;;19.02;10.35;;;;;;;8.17;100.00;100516.59;8291116;28;20045;-51
2022/11/27 18:11:48;;;;;;;20.98;11.73;;;;;;;8.13;100.00;100525.06;8288495;28;20050;-52
2022/11/27 18:15:49;;;;;;;16.38;9.20;;;;;;;8.17;100.00;100526.53;8298165;28;20113;-55
2022/11/27 18:19:50;;;;;;;27.30;14.07;;;;;;;8.09;100.00;100506.47;8318506;28;20045;-51
2022/11/27 18:23:52;;;;;;;30.88;16.13;;;;;;;8.06;100.00;100482.47;8299747;28;20038;-53
2022/11/27 18:27:53;;;;;;;27.42;15.25;;;;;;;8.06;100.00;100479.78;8268853;28;20087;-51
2022/11/27 18:31:53;;;;;;;19.67;10.90;;;;;;;8.07;100.00;100457.28;8283639;28;20037;-52
2022/11/27 18:35:54;;;;;;;30.17;15.18;;;;;;;8.07;100.00;100461.81;8286177;28;20800;-51
2022/11/27 18:39:55;;;;;;;25.45;13.05;;;;;;;8.09;100.00;100465.25;8287598;28;20053;-54
2022/11/27 18:43:57;;;;;;;23.35;11.70;;;;;;;8.07;100.00;100465.38;8286700;28;20054;-51
2022/11/27 18:47:58;;;;;;;20.75;11.95;;;;;;;8.08;100.00;100479.66;8287865;28;20057;-51
2022/11/27 18:51:58;;;;;;;15.70;10.18;;;;;;;8.09;100.00;100470.63;8287240;28;20087;-51
2022/11/27 18:56:05;;;;;;;14.27;9.70;;;;;;;8.15;100.00;100466.56;8254618;28;20073;-50
2022/11/27 19:00:06;;;;;;;26.60;12.50;;;;;;;8.16;100.00;100470.97;8271607;28;20030;-53
2022/11/27 19:04:08;;;;;;;22.20;13.27;;;;;;;8.11;100.00;100465.13;8283399;28;20293;-54
2022/11/27 19:08:09;;;;;;;19.40;10.93;;;;;;;8.09;100.00;100444.53;8281636;28;20073;-51
2022/11/27 19:12:11;;;;;;;17.50;10.40;;;;;;;8.12;100.00;100450.66;8270923;28;20386;-51